Terminal Aerodrome Forecast
Issued by NWS

Current Version | Previous Version | Text Only | Print | Product List | Glossary Off
Versions: 1 2 3 4 5 6 7 8 9 10 11 12 13 14 15 16 17

000
FTUS41 KILN 080200 AAB
TAFLCK
TAF AMD
KLCK 080208Z 0802/0824 22010KT P6SM VCTS OVC040CB
      TEMPO 0802/0803 5SM -TSRA BR OVC020CB
     FM080300 21010KT P6SM VCSH BKN040 BKN100
     FM081400 22012G20KT 5SM -TSRA BR VCTS OVC025CB
     FM081700 22012G24KT P6SM BKN035
     FM082000 24014G26KT P6SM VCTS BKN035CB=

USA.gov is the U.S. government's official web portal to all federal, state and local government web resources and services.